sensor_id;sensor_type;location;lat;lon;timestamp;temperature;humidity
2489;DHT22;1255;48.716;9.124;2023-09-19T03:33:08;15.70;99.90
2489;DHT22;1255;48.716;9.124;2023-09-19T03:35:35;15.70;99.90
2489;DHT22;1255;48.716;9.124;2023-09-19T03:38:03;15.70;99.90
2489;DHT22;1255;48.716;9.124;2023-09-19T03:40:30;15.80;99.90
2489;DHT22;1255;48.716;9.124;2023-09-19T03:43:00;15.80;99.90
2489;DHT22;1255;48.716;9.124;2023-09-19T03:45:27;15.80;99.90
2489;DHT22;1255;48.716;9.124;2023-09-19T03:47:54;15.70;99.90
2489;DHT22;1255;48.716;9.124;2023-09-19T03:50:22;15.80;99.90
2489;DHT22;1255;48.716;9.124;2023-09-19T03:52:48;15.80;99.90
2489;DHT22;1255;48.716;9.124;2023-09-19T03:55:15;15.80;99.90
2489;DHT22;1255;48.716;9.124;2023-09-19T03:57:42;15.80;99.90
2489;DHT22;1255;48.716;9.124;2023-09-19T04:00:09;15.80;99.90
2489;DHT22;1255;48.716;9.124;2023-09-19T04:02:37;15.80;99.90
2489;DHT22;1255;48.716;9.124;2023-09-19T04:05:05;15.80;99.90
2489;DHT22;1255;48.716;9.124;2023-09-19T04:07:33;15.80;99.90
2489;DHT22;1255;48.716;9.124;2023-09-19T04:10:00;15.80;99.90
2489;DHT22;1255;48.716;9.124;2023-09-19T04:12:28;15.70;99.90
2489;DHT22;1255;48.716;9.124;2023-09-19T04:14:55;15.70;99.90
2489;DHT22;1255;48.716;9.124;2023-09-19T04:17:22;15.70;99.90
2489;DHT22;1255;48.716;9.124;2023-09-19T04:19:48;15.70;99.90
2489;DHT22;1255;48.716;9.124;2023-09-19T04:22:15;15.70;99.90
2489;DHT22;1255;48.716;9.124;2023-09-19T04:24:43;15.70;99.90
2489;DHT22;1255;48.716;9.124;2023-09-19T04:27:10;15.60;99.90
2489;DHT22;1255;48.716;9.124;2023-09-19T04:29:40;15.70;99.90
2489;DHT22;1255;48.716;9.124;2023-09-19T04:32:07;15.70;99.90
2489;DHT22;1255;48.716;9.124;2023-09-19T04:34:35;15.70;99.90
2489;DHT22;1255;48.716;9.124;2023-09-19T04:37:02;15.70;99.90
2489;DHT22;1255;48.716;9.124;2023-09-19T04:39:29;15.70;99.90
2489;DHT22;1255;48.716;9.124;2023-09-19T04:41:57;15.70;99.90
2489;DHT22;1255;48.716;9.124;2023-09-19T04:44:25;15.70;99.90
2489;DHT22;1255;48.716;9.124;2023-09-19T04:46:51;15.60;99.90
2489;DHT22;1255;48.716;9.124;2023-09-19T04:49:18;15.60;99.90
2489;DHT22;1255;48.716;9.124;2023-09-19T04:51:45;15.60;99.90
2489;DHT22;1255;48.716;9.124;2023-09-19T04:54:12;15.60;99.90
2489;DHT22;1255;48.716;9.124;2023-09-19T04:56:40;15.60;99.90
2489;DHT22;1255;48.716;9.124;2023-09-19T04:59:08;15.60;99.90
2489;DHT22;1255;48.716;9.124;2023-09-19T05:01:36;15.60;99.90
2489;DHT22;1255;48.716;9.124;2023-09-19T05:04:03;15.70;99.90
2489;DHT22;1255;48.716;9.124;2023-09-19T05:06:30;15.70;99.90
2489;DHT22;1255;48.716;9.124;2023-09-19T05:08:57;15.70;99.90
2489;DHT22;1255;48.716;9.124;2023-09-19T05:11:25;15.70;99.90
2489;DHT22;1255;48.716;9.124;2023-09-19T05:13:52;15.70;99.90
2489;DHT22;1255;48.716;9.124;2023-09-19T05:16:20;15.70;99.90
2489;DHT22;1255;48.716;9.124;2023-09-19T05:18:47;15.70;99.90
2489;DHT22;1255;48.716;9.124;2023-09-19T05:21:15;15.70;99.90
2489;DHT22;1255;48.716;9.124;2023-09-19T05:23:42;15.70;99.90
2489;DHT22;1255;48.716;9.124;2023-09-19T05:26:09;15.70;99.90
2489;DHT22;1255;48.716;9.124;2023-09-19T05:28:38;15.60;99.90
2489;DHT22;1255;48.716;9.124;2023-09-19T05:31:05;15.60;99.90
2489;DHT22;1255;48.716;9.124;2023-09-19T05:33:33;15.60;99.90
2489;DHT22;1255;48.716;9.124;2023-09-19T05:35:59;15.60;99.90
2489;DHT22;1255;48.716;9.124;2023-09-19T05:38:26;15.60;99.90
2489;DHT22;1255;48.716;9.124;2023-09-19T05:40:53;15.60;99.90
2489;DHT22;1255;48.716;9.124;2023-09-19T05:43:19;15.60;99.90
2489;DHT22;1255;48.716;9.124;2023-09-19T05:45:47;15.60;99.90
2489;DHT22;1255;48.716;9.124;2023-09-19T05:48:14;15.60;99.90
2489;DHT22;1255;48.716;9.124;2023-09-19T05:50:43;15.60;99.90
2489;DHT22;1255;48.716;9.124;2023-09-19T05:53:10;15.60;99.90
2489;DHT22;1255;48.716;9.124;2023-09-19T05:55:38;15.60;99.90
2489;DHT22;1255;48.716;9.124;2023-09-19T05:58:05;15.60;99.90
2489;DHT22;1255;48.716;9.124;2023-09-19T06:00:32;15.70;99.90
2489;DHT22;1255;48.716;9.124;2023-09-19T06:02:59;15.70;99.90
2489;DHT22;1255;48.716;9.124;2023-09-19T06:05:27;15.70;99.90
2489;DHT22;1255;48.716;9.124;2023-09-19T06:07:57;15.70;99.90
2489;DHT22;1255;48.716;9.124;2023-09-19T06:10:25;15.60;99.90
2489;DHT22;1255;48.716;9.124;2023-09-19T06:12:53;15.60;99.90
2489;DHT22;1255;48.716;9.124;2023-09-19T06:15:20;15.50;99.90
2489;DHT22;1255;48.716;9.124;2023-09-19T06:17:49;15.50;99.90
2489;DHT22;1255;48.716;9.124;2023-09-19T06:20:16;15.50;99.90
2489;DHT22;1255;48.716;9.124;2023-09-19T06:22:44;15.50;99.90
2489;DHT22;1255;48.716;9.124;2023-09-19T06:25:13;15.50;99.90
2489;DHT22;1255;48.716;9.124;2023-09-19T06:27:42;15.40;99.90
2489;DHT22;1255;48.716;9.124;2023-09-19T06:30:11;15.40;99.90
2489;DHT22;1255;48.716;9.124;2023-09-19T06:32:38;15.40;99.90
2489;DHT22;1255;48.716;9.124;2023-09-19T06:35:06;15.30;99.90
2489;DHT22;1255;48.716;9.124;2023-09-19T06:37:34;15.40;99.90
2489;DHT22;1255;48.716;9.124;2023-09-19T06:40:01;15.40;99.90
2489;DHT22;1255;48.716;9.124;2023-09-19T06:42:29;15.40;99.90
2489;DHT22;1255;48.716;9.124;2023-09-19T06:44:56;15.50;99.90
2489;DHT22;1255;48.716;9.124;2023-09-19T06:47:23;15.50;99.90
2489;DHT22;1255;48.716;9.124;2023-09-19T06:49:51;15.60;99.90
2489;DHT22;1255;48.716;9.124;2023-09-19T06:52:18;15.60;99.90
2489;DHT22;1255;48.716;9.124;2023-09-19T06:54:47;15.60;99.90
2489;DHT22;1255;48.716;9.124;2023-09-19T06:57:15;15.70;99.90
2489;DHT22;1255;48.716;9.124;2023-09-19T06:59:43;15.70;99.90
2489;DHT22;1255;48.716;9.124;2023-09-19T07:02:11;15.80;99.90
2489;DHT22;1255;48.716;9.124;2023-09-19T07:04:39;15.90;99.90
2489;DHT22;1255;48.716;9.124;2023-09-19T07:07:06;16.00;99.90
2489;DHT22;1255;48.716;9.124;2023-09-19T07:09:34;16.00;99.90
2489;DHT22;1255;48.716;9.124;2023-09-19T07:12:01;16.00;99.90
2489;DHT22;1255;48.716;9.124;2023-09-19T07:14:27;16.10;99.90
2489;DHT22;1255;48.716;9.124;2023-09-19T07:16:57;16.10;99.90
2489;DHT22;1255;48.716;9.124;2023-09-19T07:19:25;16.20;99.90
2489;DHT22;1255;48.716;9.124;2023-09-19T07:21:54;16.20;99.90
2489;DHT22;1255;48.716;9.124;2023-09-19T07:24:20;16.30;99.90
2489;DHT22;1255;48.716;9.124;2023-09-19T07:26:49;16.30;99.90
2489;DHT22;1255;48.716;9.124;2023-09-19T07:29:16;16.40;99.90
2489;DHT22;1255;48.716;9.124;2023-09-19T07:31:43;16.40;99.90
2489;DHT22;1255;48.716;9.124;2023-09-19T07:34:11;16.50;99.90
2489;DHT22;1255;48.716;9.124;2023-09-19T07:36:39;16.60;99.90
2489;DHT22;1255;48.716;9.124;2023-09-19T07:39:07;16.60;99.90
2489;DHT22;1255;48.716;9.124;2023-09-19T07:41:34;16.70;99.90
2489;DHT22;1255;48.716;9.124;2023-09-19T07:44:00;16.70;99.90
2489;DHT22;1255;48.716;9.124;2023-09-19T07:46:27;16.80;99.90
2489;DHT22;1255;48.716;9.124;2023-09-19T07:48:56;16.90;99.90
2489;DHT22;1255;48.716;9.124;2023-09-19T07:51:24;16.90;99.90
2489;DHT22;1255;48.716;9.124;2023-09-19T07:53:51;17.00;99.90
2489;DHT22;1255;48.716;9.124;2023-09-19T07:56:18;17.10;99.90
2489;DHT22;1255;48.716;9.124;2023-09-19T07:58:45;17.20;99.90
2489;DHT22;1255;48.716;9.124;2023-09-19T08:01:12;17.20;99.90
2489;DHT22;1255;48.716;9.124;2023-09-19T08:03:41;17.30;99.90
2489;DHT22;1255;48.716;9.124;2023-09-19T08:06:09;17.30;99.90
2489;DHT22;1255;48.716;9.124;2023-09-19T08:08:37;17.40;99.90
2489;DHT22;1255;48.716;9.124;2023-09-19T08:11:05;17.50;99.90
2489;DHT22;1255;48.716;9.124;2023-09-19T08:13:36;17.60;99.90
2489;DHT22;1255;48.716;9.124;2023-09-19T08:16:06;17.60;99.90
2489;DHT22;1255;48.716;9.124;2023-09-19T08:18:33;17.70;99.90
2489;DHT22;1255;48.716;9.124;2023-09-19T08:21:00;17.70;99.90
2489;DHT22;1255;48.716;9.124;2023-09-19T08:23:27;17.80;99.90
2489;DHT22;1255;48.716;9.124;2023-09-19T08:25:57;17.80;99.90
2489;DHT22;1255;48.716;9.124;2023-09-19T08:28:31;17.90;99.90
2489;DHT22;1255;48.716;9.124;2023-09-19T08:31:01;18.00;99.90
2489;DHT22;1255;48.716;9.124;2023-09-19T08:33:29;18.10;99.90
2489;DHT22;1255;48.716;9.124;2023-09-19T08:35:56;18.20;99.90
2489;DHT22;1255;48.716;9.124;2023-09-19T08:38:23;18.30;99.90
2489;DHT22;1255;48.716;9.124;2023-09-19T08:40:58;18.40;99.90
2489;DHT22;1255;48.716;9.124;2023-09-19T08:43:26;18.50;99.90
2489;DHT22;1255;48.716;9.124;2023-09-19T08:45:58;18.50;99.90
2489;DHT22;1255;48.716;9.124;2023-09-19T08:48:26;18.50;99.90
2489;DHT22;1255;48.716;9.124;2023-09-19T08:50:56;18.50;99.90
2489;DHT22;1255;48.716;9.124;2023-09-19T08:53:34;18.70;99.90
2489;DHT22;1255;48.716;9.124;2023-09-19T08:56:06;18.70;99.90
2489;DHT22;1255;48.716;9.124;2023-09-19T08:58:42;18.90;99.90
2489;DHT22;1255;48.716;9.124;2023-09-19T09:01:13;19.00;99.90
2489;DHT22;1255;48.716;9.124;2023-09-19T09:03:42;19.20;99.90
2489;DHT22;1255;48.716;9.124;2023-09-19T09:06:14;19.40;99.90
2489;DHT22;1255;48.716;9.124;2023-09-19T09:08:41;19.60;99.90
2489;DHT22;1255;48.716;9.124;2023-09-19T09:11:11;19.60;99.90
2489;DHT22;1255;48.716;9.124;2023-09-19T09:13:38;19.60;99.90
2489;DHT22;1255;48.716;9.124;2023-09-19T09:16:07;19.60;99.90
2489;DHT22;1255;48.716;9.124;2023-09-19T09:18:34;19.40;99.90
2489;DHT22;1255;48.716;9.124;2023-09-19T09:21:01;19.30;99.90
2489;DHT22;1255;48.716;9.124;2023-09-19T09:23:30;19.30;99.90
2489;DHT22;1255;48.716;9.124;2023-09-19T09:25:58;19.50;99.90
2489;DHT22;1255;48.716;9.124;2023-09-19T09:28:30;19.60;99.90
2489;DHT22;1255;48.716;9.124;2023-09-19T09:30:59;19.70;99.90
2489;DHT22;1255;48.716;9.124;2023-09-19T09:33:26;19.80;99.90
2489;DHT22;1255;48.716;9.124;2023-09-19T09:35:56;19.80;99.90
2489;DHT22;1255;48.716;9.124;2023-09-19T09:38:24;20.00;99.90
2489;DHT22;1255;48.716;9.124;2023-09-19T09:40:57;20.30;99.90
2489;DHT22;1255;48.716;9.124;2023-09-19T09:43:35;20.60;99.90
2489;DHT22;1255;48.716;9.124;2023-09-19T09:46:13;20.80;99.90
2489;DHT22;1255;48.716;9.124;2023-09-19T09:48:58;21.10;99.90
2489;DHT22;1255;48.716;9.124;2023-09-19T09:51:51;21.20;99.90
2489;DHT22;1255;48.716;9.124;2023-09-19T09:54:25;21.10;99.90
2489;DHT22;1255;48.716;9.124;2023-09-19T09:57:00;21.10;99.90
2489;DHT22;1255;48.716;9.124;2023-09-19T09:59:48;21.20;99.90
2489;DHT22;1255;48.716;9.124;2023-09-19T10:02:16;21.30;99.90
2489;DHT22;1255;48.716;9.124;2023-09-19T10:04:48;21.50;99.90
2489;DHT22;1255;48.716;9.124;2023-09-19T10:07:26;21.50;99.90
2489;DHT22;1255;48.716;9.124;2023-09-19T10:09:53;21.50;99.90
2489;DHT22;1255;48.716;9.124;2023-09-19T10:12:31;21.50;99.90
2489;DHT22;1255;48.716;9.124;2023-09-19T10:15:01;21.50;99.90
2489;DHT22;1255;48.716;9.124;2023-09-19T10:17:29;21.60;99.90
2489;DHT22;1255;48.716;9.124;2023-09-19T10:19:58;21.70;99.90
2489;DHT22;1255;48.716;9.124;2023-09-19T10:22:32;21.90;99.90
2489;DHT22;1255;48.716;9.124;2023-09-19T10:25:02;22.00;99.90
2489;DHT22;1255;48.716;9.124;2023-09-19T10:27:33;22.00;99.90
2489;DHT22;1255;48.716;9.124;2023-09-19T10:30:05;22.10;99.90
2489;DHT22;1255;48.716;9.124;2023-09-19T10:32:35;22.20;99.90
2489;DHT22;1255;48.716;9.124;2023-09-19T10:35:05;22.30;99.90
2489;DHT22;1255;48.716;9.124;2023-09-19T10:37:34;22.30;99.90
2489;DHT22;1255;48.716;9.124;2023-09-19T10:40:04;22.30;99.90
2489;DHT22;1255;48.716;9.124;2023-09-19T10:42:38;22.40;99.90
2489;DHT22;1255;48.716;9.124;2023-09-19T10:45:09;22.50;99.90
2489;DHT22;1255;48.716;9.124;2023-09-19T10:47:39;22.50;99.90
2489;DHT22;1255;48.716;9.124;2023-09-19T10:50:06;22.50;99.90
2489;DHT22;1255;48.716;9.124;2023-09-19T10:52:40;22.60;99.90
2489;DHT22;1255;48.716;9.124;2023-09-19T10:55:10;22.80;99.90
2489;DHT22;1255;48.716;9.124;2023-09-19T10:57:44;22.90;99.90
2489;DHT22;1255;48.716;9.124;2023-09-19T11:00:13;22.90;99.90
2489;DHT22;1255;48.716;9.124;2023-09-19T11:03:17;22.80;99.90
2489;DHT22;1255;48.716;9.124;2023-09-19T11:08:55;23.10;99.90
2489;DHT22;1255;48.716;9.124;2023-09-19T11:11:46;23.20;99.90
2489;DHT22;1255;48.716;9.124;2023-09-19T11:14:38;23.20;99.90
2489;DHT22;1255;48.716;9.124;2023-09-19T11:17:31;23.20;99.90
2489;DHT22;1255;48.716;9.124;2023-09-19T11:20:18;23.30;99.90
2489;DHT22;1255;48.716;9.124;2023-09-19T11:23:18;23.30;99.90
2489;DHT22;1255;48.716;9.124;2023-09-19T11:25:48;23.40;99.90
2489;DHT22;1255;48.716;9.124;2023-09-19T11:28:28;23.50;99.90
2489;DHT22;1255;48.716;9.124;2023-09-19T11:30:56;23.30;99.90
2489;DHT22;1255;48.716;9.124;2023-09-19T11:33:25;22.80;99.90
2489;DHT22;1255;48.716;9.124;2023-09-19T11:35:59;22.60;99.90
2489;DHT22;1255;48.716;9.124;2023-09-19T11:41:38;22.50;99.90
2489;DHT22;1255;48.716;9.124;2023-09-19T11:44:33;22.40;99.90
2489;DHT22;1255;48.716;9.124;2023-09-19T11:47:02;22.40;99.90
2489;DHT22;1255;48.716;9.124;2023-09-19T11:49:32;22.60;99.90
2489;DHT22;1255;48.716;9.124;2023-09-19T11:52:00;22.80;99.90
2489;DHT22;1255;48.716;9.124;2023-09-19T11:54:31;22.90;99.90
2489;DHT22;1255;48.716;9.124;2023-09-19T11:56:59;23.00;99.90
2489;DHT22;1255;48.716;9.124;2023-09-19T11:59:27;23.10;99.90
2489;DHT22;1255;48.716;9.124;2023-09-19T12:01:55;22.80;99.90
2489;DHT22;1255;48.716;9.124;2023-09-19T12:04:35;22.70;99.90
2489;DHT22;1255;48.716;9.124;2023-09-19T12:07:04;22.70;99.90
2489;DHT22;1255;48.716;9.124;2023-09-19T12:09:38;22.60;99.90
2489;DHT22;1255;48.716;9.124;2023-09-19T12:12:05;22.70;99.90
2489;DHT22;1255;48.716;9.124;2023-09-19T12:14:32;23.10;99.90
2489;DHT22;1255;48.716;9.124;2023-09-19T12:17:00;23.40;99.90
2489;DHT22;1255;48.716;9.124;2023-09-19T12:19:29;23.50;99.90
2489;DHT22;1255;48.716;9.124;2023-09-19T12:22:01;23.40;99.90
2489;DHT22;1255;48.716;9.124;2023-09-19T12:24:32;23.50;99.90
2489;DHT22;1255;48.716;9.124;2023-09-19T12:27:02;23.70;99.90
2489;DHT22;1255;48.716;9.124;2023-09-19T12:29:31;23.80;99.90
2489;DHT22;1255;48.716;9.124;2023-09-19T12:32:01;23.70;99.90
2489;DHT22;1255;48.716;9.124;2023-09-19T12:34:32;23.80;99.90
2489;DHT22;1255;48.716;9.124;2023-09-19T12:37:10;23.60;99.90
2489;DHT22;1255;48.716;9.124;2023-09-19T12:39:46;23.50;99.90
2489;DHT22;1255;48.716;9.124;2023-09-19T12:42:17;23.30;99.90
2489;DHT22;1255;48.716;9.124;2023-09-19T12:44:48;23.30;99.90
2489;DHT22;1255;48.716;9.124;2023-09-19T12:47:18;23.50;99.90
2489;DHT22;1255;48.716;9.124;2023-09-19T12:50:08;23.60;99.90
2489;DHT22;1255;48.716;9.124;2023-09-19T12:52:41;23.60;99.90
2489;DHT22;1255;48.716;9.124;2023-09-19T12:55:18;23.60;99.90
2489;DHT22;1255;48.716;9.124;2023-09-19T12:57:55;23.70;99.90
2489;DHT22;1255;48.716;9.124;2023-09-19T13:00:32;23.60;99.90
2489;DHT22;1255;48.716;9.124;2023-09-19T13:03:24;23.70;99.90
2489;DHT22;1255;48.716;9.124;2023-09-19T13:05:52;23.70;99.90
2489;DHT22;1255;48.716;9.124;2023-09-19T13:08:24;23.80;99.90
2489;DHT22;1255;48.716;9.124;2023-09-19T13:11:04;23.80;99.90
2489;DHT22;1255;48.716;9.124;2023-09-19T13:13:35;23.90;99.90
2489;DHT22;1255;48.716;9.124;2023-09-19T13:16:03;24.00;99.90
2489;DHT22;1255;48.716;9.124;2023-09-19T13:18:42;24.10;99.90
2489;DHT22;1255;48.716;9.124;2023-09-19T13:21:10;24.10;99.90
2489;DHT22;1255;48.716;9.124;2023-09-19T13:23:42;24.10;99.90
2489;DHT22;1255;48.716;9.124;2023-09-19T13:26:09;24.10;99.90
2489;DHT22;1255;48.716;9.124;2023-09-19T13:28:37;24.20;99.90
2489;DHT22;1255;48.716;9.124;2023-09-19T13:31:04;24.30;99.90
2489;DHT22;1255;48.716;9.124;2023-09-19T13:33:32;24.30;99.90
2489;DHT22;1255;48.716;9.124;2023-09-19T13:35:59;24.30;99.90
2489;DHT22;1255;48.716;9.124;2023-09-19T13:38:25;24.40;99.90
2489;DHT22;1255;48.716;9.124;2023-09-19T13:40:53;24.50;99.90
2489;DHT22;1255;48.716;9.124;2023-09-19T13:43:21;24.30;99.90
2489;DHT22;1255;48.716;9.124;2023-09-19T13:45:49;24.20;99.90
2489;DHT22;1255;48.716;9.124;2023-09-19T13:48:16;24.10;99.90
2489;DHT22;1255;48.716;9.124;2023-09-19T13:50:48;24.20;99.90
2489;DHT22;1255;48.716;9.124;2023-09-19T13:53:15;24.10;99.90
2489;DHT22;1255;48.716;9.124;2023-09-19T13:55:42;24.00;99.90
2489;DHT22;1255;48.716;9.124;2023-09-19T13:58:10;24.10;99.90
2489;DHT22;1255;48.716;9.124;2023-09-19T14:00:38;24.20;99.90
2489;DHT22;1255;48.716;9.124;2023-09-19T14:03:05;24.30;99.90
2489;DHT22;1255;48.716;9.124;2023-09-19T14:05:31;24.40;99.90
2489;DHT22;1255;48.716;9.124;2023-09-19T14:07:58;24.40;99.90
2489;DHT22;1255;48.716;9.124;2023-09-19T14:10:25;24.40;99.90
2489;DHT22;1255;48.716;9.124;2023-09-19T14:12:52;24.30;99.90
2489;DHT22;1255;48.716;9.124;2023-09-19T14:15:20;24.20;99.90
2489;DHT22;1255;48.716;9.124;2023-09-19T14:17:54;24.10;99.90
2489;DHT22;1255;48.716;9.124;2023-09-19T14:20:21;23.80;99.90
2489;DHT22;1255;48.716;9.124;2023-09-19T14:22:48;23.50;99.90
2489;DHT22;1255;48.716;9.124;2023-09-19T14:25:16;23.50;99.90
2489;DHT22;1255;48.716;9.124;2023-09-19T14:27:43;23.30;99.90
2489;DHT22;1255;48.716;9.124;2023-09-19T14:30:10;23.10;99.90
2489;DHT22;1255;48.716;9.124;2023-09-19T14:32:38;23.00;99.90
2489;DHT22;1255;48.716;9.124;2023-09-19T14:35:07;23.10;99.90
2489;DHT22;1255;48.716;9.124;2023-09-19T14:37:35;23.00;99.90
2489;DHT22;1255;48.716;9.124;2023-09-19T14:40:04;22.90;99.90
2489;DHT22;1255;48.716;9.124;2023-09-19T14:42:34;22.80;99.90
2489;DHT22;1255;48.716;9.124;2023-09-19T14:45:04;22.90;99.90
2489;DHT22;1255;48.716;9.124;2023-09-19T14:47:31;23.00;99.90
2489;DHT22;1255;48.716;9.124;2023-09-19T14:50:00;23.10;99.90
2489;DHT22;1255;48.716;9.124;2023-09-19T14:52:27;23.10;99.90
2489;DHT22;1255;48.716;9.124;2023-09-19T14:54:54;23.20;99.90
2489;DHT22;1255;48.716;9.124;2023-09-19T14:57:21;23.10;99.90
2489;DHT22;1255;48.716;9.124;2023-09-19T14:59:50;23.10;99.90
2489;DHT22;1255;48.716;9.124;2023-09-19T15:02:16;23.10;99.90
2489;DHT22;1255;48.716;9.124;2023-09-19T15:04:43;23.10;99.90
2489;DHT22;1255;48.716;9.124;2023-09-19T15:07:14;23.10;99.90
2489;DHT22;1255;48.716;9.124;2023-09-19T15:09:41;23.10;99.90
2489;DHT22;1255;48.716;9.124;2023-09-19T15:12:09;23.10;99.90
2489;DHT22;1255;48.716;9.124;2023-09-19T15:14:36;23.10;99.90
2489;DHT22;1255;48.716;9.124;2023-09-19T15:17:03;23.10;99.90
2489;DHT22;1255;48.716;9.124;2023-09-19T15:19:31;23.00;99.90
2489;DHT22;1255;48.716;9.124;2023-09-19T15:21:57;22.80;99.90
2489;DHT22;1255;48.716;9.124;2023-09-19T15:24:25;22.50;99.90
2489;DHT22;1255;48.716;9.124;2023-09-19T15:26:53;22.40;99.90
2489;DHT22;1255;48.716;9.124;2023-09-19T15:29:21;22.30;99.90
2489;DHT22;1255;48.716;9.124;2023-09-19T15:31:48;22.30;99.90
2489;DHT22;1255;48.716;9.124;2023-09-19T15:34:15;22.30;99.90
2489;DHT22;1255;48.716;9.124;2023-09-19T15:36:42;22.30;99.90
2489;DHT22;1255;48.716;9.124;2023-09-19T15:39:09;22.30;99.90
2489;DHT22;1255;48.716;9.124;2023-09-19T15:41:39;22.30;99.90
2489;DHT22;1255;48.716;9.124;2023-09-19T15:44:11;22.30;99.90
2489;DHT22;1255;48.716;9.124;2023-09-19T15:46:39;22.20;99.90
2489;DHT22;1255;48.716;9.124;2023-09-19T15:49:06;22.20;99.90
2489;DHT22;1255;48.716;9.124;2023-09-19T15:51:34;22.10;99.90
2489;DHT22;1255;48.716;9.124;2023-09-19T15:54:07;22.00;99.90
2489;DHT22;1255;48.716;9.124;2023-09-19T15:56:34;22.00;99.90
2489;DHT22;1255;48.716;9.124;2023-09-19T15:59:03;22.00;99.90
2489;DHT22;1255;48.716;9.124;2023-09-19T16:01:30;22.00;99.90
2489;DHT22;1255;48.716;9.124;2023-09-19T16:03:57;21.90;99.90
2489;DHT22;1255;48.716;9.124;2023-09-19T16:06:25;21.90;99.90
2489;DHT22;1255;48.716;9.124;2023-09-19T16:08:53;21.80;99.90
2489;DHT22;1255;48.716;9.124;2023-09-19T16:11:21;21.80;99.90
2489;DHT22;1255;48.716;9.124;2023-09-19T16:13:49;21.70;99.90
2489;DHT22;1255;48.716;9.124;2023-09-19T16:16:19;21.70;99.90
2489;DHT22;1255;48.716;9.124;2023-09-19T16:18:48;21.70;99.90
2489;DHT22;1255;48.716;9.124;2023-09-19T16:21:16;21.60;99.90
2489;DHT22;1255;48.716;9.124;2023-09-19T16:23:45;21.60;99.90
2489;DHT22;1255;48.716;9.124;2023-09-19T16:26:12;21.60;99.90
2489;DHT22;1255;48.716;9.124;2023-09-19T16:28:40;21.50;99.90
2489;DHT22;1255;48.716;9.124;2023-09-19T16:31:08;21.40;99.90
2489;DHT22;1255;48.716;9.124;2023-09-19T16:33:37;21.30;99.90
2489;DHT22;1255;48.716;9.124;2023-09-19T16:36:07;21.20;99.90
2489;DHT22;1255;48.716;9.124;2023-09-19T16:38:34;21.10;99.90
2489;DHT22;1255;48.716;9.124;2023-09-19T16:41:01;21.10;99.90
2489;DHT22;1255;48.716;9.124;2023-09-19T16:43:29;21.00;99.90
2489;DHT22;1255;48.716;9.124;2023-09-19T16:45:59;20.90;99.90
2489;DHT22;1255;48.716;9.124;2023-09-19T16:48:27;20.80;99.90
2489;DHT22;1255;48.716;9.124;2023-09-19T16:50:59;20.70;99.90
2489;DHT22;1255;48.716;9.124;2023-09-19T16:53:27;20.60;99.90
2489;DHT22;1255;48.716;9.124;2023-09-19T16:55:54;20.50;99.90
2489;DHT22;1255;48.716;9.124;2023-09-19T16:58:22;20.40;99.90
2489;DHT22;1255;48.716;9.124;2023-09-19T17:00:49;20.40;99.90
2489;DHT22;1255;48.716;9.124;2023-09-19T17:03:17;20.40;99.90
2489;DHT22;1255;48.716;9.124;2023-09-19T17:05:44;20.30;99.90
2489;DHT22;1255;48.716;9.124;2023-09-19T17:08:14;20.30;99.90
2489;DHT22;1255;48.716;9.124;2023-09-19T17:10:40;20.10;99.90
2489;DHT22;1255;48.716;9.124;2023-09-19T17:13:09;20.10;99.90
2489;DHT22;1255;48.716;9.124;2023-09-19T17:15:36;20.00;99.90
2489;DHT22;1255;48.716;9.124;2023-09-19T17:18:05;19.90;99.90
2489;DHT22;1255;48.716;9.124;2023-09-19T17:20:32;19.80;99.90
2489;DHT22;1255;48.716;9.124;2023-09-19T17:22:58;19.70;99.90
2489;DHT22;1255;48.716;9.124;2023-09-19T17:25:27;19.60;99.90
2489;DHT22;1255;48.716;9.124;2023-09-19T17:27:56;19.50;99.90
2489;DHT22;1255;48.716;9.124;2023-09-19T17:30:24;19.40;99.90
2489;DHT22;1255;48.716;9.124;2023-09-19T17:32:52;19.30;99.90
2489;DHT22;1255;48.716;9.124;2023-09-19T17:35:19;19.20;99.90
2489;DHT22;1255;48.716;9.124;2023-09-19T17:37:46;19.20;99.90
2489;DHT22;1255;48.716;9.124;2023-09-19T17:40:13;19.00;99.90
2489;DHT22;1255;48.716;9.124;2023-09-19T17:42:42;19.00;99.90
2489;DHT22;1255;48.716;9.124;2023-09-19T17:45:10;18.90;99.90
2489;DHT22;1255;48.716;9.124;2023-09-19T17:47:40;18.80;99.90
2489;DHT22;1255;48.716;9.124;2023-09-19T17:50:07;18.70;99.90
2489;DHT22;1255;48.716;9.124;2023-09-19T17:52:38;18.60;99.90
2489;DHT22;1255;48.716;9.124;2023-09-19T17:55:05;18.50;99.90
2489;DHT22;1255;48.716;9.124;2023-09-19T17:57:33;18.40;99.90
2489;DHT22;1255;48.716;9.124;2023-09-19T18:00:01;18.30;99.90
2489;DHT22;1255;48.716;9.124;2023-09-19T18:02:31;18.20;99.90
2489;DHT22;1255;48.716;9.124;2023-09-19T18:04:58;18.10;99.90
2489;DHT22;1255;48.716;9.124;2023-09-19T18:07:25;18.00;99.90
2489;DHT22;1255;48.716;9.124;2023-09-19T18:09:52;17.90;99.90
2489;DHT22;1255;48.716;9.124;2023-09-19T18:12:18;17.80;99.90
2489;DHT22;1255;48.716;9.124;2023-09-19T18:14:45;17.70;99.90
2489;DHT22;1255;48.716;9.124;2023-09-19T18:17:13;17.60;99.90
2489;DHT22;1255;48.716;9.124;2023-09-19T18:19:40;17.50;99.90
2489;DHT22;1255;48.716;9.124;2023-09-19T18:22:07;17.50;99.90
2489;DHT22;1255;48.716;9.124;2023-09-19T18:24:37;17.40;99.90
2489;DHT22;1255;48.716;9.124;2023-09-19T18:27:04;17.30;99.90
2489;DHT22;1255;48.716;9.124;2023-09-19T18:29:31;17.30;99.90
2489;DHT22;1255;48.716;9.124;2023-09-19T18:31:58;17.20;99.90
2489;DHT22;1255;48.716;9.124;2023-09-19T18:34:27;17.10;99.90
2489;DHT22;1255;48.716;9.124;2023-09-19T18:36:55;17.10;99.90
2489;DHT22;1255;48.716;9.124;2023-09-19T18:39:23;16.90;99.90
2489;DHT22;1255;48.716;9.124;2023-09-19T18:41:50;16.90;99.90
2489;DHT22;1255;48.716;9.124;2023-09-19T18:44:17;16.80;99.90
2489;DHT22;1255;48.716;9.124;2023-09-19T18:46:44;16.80;99.90
2489;DHT22;1255;48.716;9.124;2023-09-19T18:49:11;16.70;99.90
2489;DHT22;1255;48.716;9.124;2023-09-19T18:51:40;16.70;99.90
2489;DHT22;1255;48.716;9.124;2023-09-19T18:54:08;16.60;99.90
2489;DHT22;1255;48.716;9.124;2023-09-19T18:56:36;16.50;99.90
2489;DHT22;1255;48.716;9.124;2023-09-19T18:59:03;16.40;99.90
2489;DHT22;1255;48.716;9.124;2023-09-19T19:01:30;16.40;99.90
2489;DHT22;1255;48.716;9.124;2023-09-19T19:03:59;16.30;99.90
2489;DHT22;1255;48.716;9.124;2023-09-19T19:06:26;16.30;99.90
2489;DHT22;1255;48.716;9.124;2023-09-19T19:08:58;16.30;99.90
2489;DHT22;1255;48.716;9.124;2023-09-19T19:11:24;16.30;99.90
2489;DHT22;1255;48.716;9.124;2023-09-19T19:13:55;16.30;99.90
2489;DHT22;1255;48.716;9.124;2023-09-19T19:16:22;16.30;99.90
2489;DHT22;1255;48.716;9.124;2023-09-19T19:18:52;16.30;99.90
2489;DHT22;1255;48.716;9.124;2023-09-19T19:21:19;16.20;99.90
2489;DHT22;1255;48.716;9.124;2023-09-19T19:23:46;16.20;99.90
2489;DHT22;1255;48.716;9.124;2023-09-19T19:26:14;16.20;99.90
2489;DHT22;1255;48.716;9.124;2023-09-19T19:28:42;16.10;99.90
2489;DHT22;1255;48.716;9.124;2023-09-19T19:31:11;16.10;99.90
2489;DHT22;1255;48.716;9.124;2023-09-19T19:33:38;16.00;99.90
2489;DHT22;1255;48.716;9.124;2023-09-19T19:36:06;15.90;99.90
2489;DHT22;1255;48.716;9.124;2023-09-19T19:38:33;15.90;99.90
2489;DHT22;1255;48.716;9.124;2023-09-19T19:41:01;15.80;99.90
2489;DHT22;1255;48.716;9.124;2023-09-19T19:43:29;15.80;99.90
2489;DHT22;1255;48.716;9.124;2023-09-19T19:45:57;15.70;99.90
2489;DHT22;1255;48.716;9.124;2023-09-19T19:48:24;15.70;99.90
2489;DHT22;1255;48.716;9.124;2023-09-19T19:50:51;15.60;99.90
2489;DHT22;1255;48.716;9.124;2023-09-19T19:53:20;15.60;99.90